Details for Norwegian Air Shuttle at ESSA




Go Back


Latest METAR
Local Time

ESSA 160920Z 19012KT 9999 FEW040 22/13 Q1015 NOSIG
16/08/2018, 11:49:21

Description
Results
Norwegian Air Shuttle Logo
Number of Pilots based at ESSA
1 Pilots Based here
Number of Norwegian Air Shuttle Flights Departed from ESSA
4 Flights Departed
Number of Norwegian Air Shuttle Flights Arrived at ESSA
7 Flights Arrived
Number of Norwegian Air Shuttle Schedules Departing from ESSA
134 Schedules
Number of Norwegian Air Shuttle Schedules Arriving at ESSA
137 Schedules
Number of Norwegian Air Shuttle Schedules Departing from ESSA availible today
63 Schedules Today
Number of Norwegian Air Shuttle Schedules Arriving at ESSA availible today
61 Schedules Today
Average Landing Rate at ESSA
-232 fpm
Norwegian Air Shuttle Average Landing Rate at ESSA
-150 fpm
Total Fuel Purchased at ESSA by Norwegian Air Shuttle
29,455.38 kgs / 64,937.33 lbs

Pilots Based at ESSA


Pilot ID
Pilot Name
Pilot Rank
No. of Flights
No. of Flying Hours
David Kurth
8
13.02
Content